sensor_id;sensor_type;location;lat;lon;timestamp;pressure;altitude;pressure_sealevel;temperature;humidity
13968;BME280;39536;52.198;9.920;2022-12-07T00:00:52;100561.84;;;3.47;100.00
13968;BME280;39536;52.198;9.920;2022-12-07T00:03:19;100546.41;;;3.44;100.00
13968;BME280;39536;52.198;9.920;2022-12-07T00:05:46;100553.28;;;3.39;100.00
13968;BME280;39536;52.198;9.920;2022-12-07T00:08:12;100558.44;;;3.39;100.00
13968;BME280;39536;52.198;9.920;2022-12-07T00:10:39;100548.16;;;3.36;100.00
13968;BME280;39536;52.198;9.920;2022-12-07T00:13:06;100544.72;;;3.37;100.00
13968;BME280;39536;52.198;9.920;2022-12-07T00:15:34;100541.28;;;3.43;100.00
13968;BME280;39536;52.198;9.920;2022-12-07T00:18:01;100542.09;;;3.51;100.00
13968;BME280;39536;52.198;9.920;2022-12-07T00:20:28;100541.22;;;3.54;100.00
13968;BME280;39536;52.198;9.920;2022-12-07T00:22:55;100540.34;;;3.58;100.00
13968;BME280;39536;52.198;9.920;2022-12-07T00:25:22;100548.09;;;3.53;100.00
13968;BME280;39536;52.198;9.920;2022-12-07T00:27:48;100537.78;;;3.55;100.00
13968;BME280;39536;52.198;9.920;2022-12-07T00:30:15;100552.38;;;3.57;100.00
13968;BME280;39536;52.198;9.920;2022-12-07T00:32:43;100538.66;;;3.51;100.00
13968;BME280;39536;52.198;9.920;2022-12-07T00:35:10;100535.22;;;3.55;100.00
13968;BME280;39536;52.198;9.920;2022-12-07T00:37:36;100537.78;;;3.58;100.00
13968;BME280;39536;52.198;9.920;2022-12-07T00:40:04;100530.91;;;3.60;100.00
13968;BME280;39536;52.198;9.920;2022-12-07T00:42:31;100531.78;;;3.54;100.00
13968;BME280;39536;52.198;9.920;2022-12-07T00:44:58;100527.47;;;3.61;100.00
13968;BME280;39536;52.198;9.920;2022-12-07T00:47:24;100520.63;;;3.57;100.00
13968;BME280;39536;52.198;9.920;2022-12-07T00:49:52;100522.31;;;3.62;100.00
13968;BME280;39536;52.198;9.920;2022-12-07T00:52:19;100510.31;;;3.60;100.00
13968;BME280;39536;52.198;9.920;2022-12-07T00:54:46;100509.47;;;3.55;100.00
13968;BME280;39536;52.198;9.920;2022-12-07T00:57:12;100508.66;;;3.50;100.00
13968;BME280;39536;52.198;9.920;2022-12-07T00:59:39;100510.31;;;3.57;100.00
13968;BME280;39536;52.198;9.920;2022-12-07T01:02:06;100503.47;;;3.54;100.00
13968;BME280;39536;52.198;9.920;2022-12-07T01:04:33;100496.56;;;3.58;100.00
13968;BME280;39536;52.198;9.920;2022-12-07T01:07:01;100498.25;;;3.63;100.00
13968;BME280;39536;52.198;9.920;2022-12-07T01:09:28;100495.69;;;3.65;100.00
13968;BME280;39536;52.198;9.920;2022-12-07T01:11:54;100497.41;;;3.66;100.00
13968;BME280;39536;52.198;9.920;2022-12-07T01:14:21;100499.13;;;3.64;100.00
13968;BME280;39536;52.198;9.920;2022-12-07T01:16:48;100496.56;;;3.61;100.00
13968;BME280;39536;52.198;9.920;2022-12-07T01:19:14;100494.00;;;3.59;100.00
13968;BME280;39536;52.198;9.920;2022-12-07T01:21:41;100489.69;;;3.66;100.00
13968;BME280;39536;52.198;9.920;2022-12-07T01:24:10;100498.25;;;3.66;100.00
13968;BME280;39536;52.198;9.920;2022-12-07T01:26:37;100500.84;;;3.63;100.00
13968;BME280;39536;52.198;9.920;2022-12-07T01:29:04;100501.66;;;3.72;100.00
13968;BME280;39536;52.198;9.920;2022-12-07T01:31:31;100493.06;;;3.74;100.00
13968;BME280;39536;52.198;9.920;2022-12-07T01:33:59;100495.66;;;3.71;100.00
13968;BME280;39536;52.198;9.920;2022-12-07T01:36:28;100493.06;;;3.73;100.00
13968;BME280;39536;52.198;9.920;2022-12-07T01:38:56;100483.63;;;3.72;100.00
13968;BME280;39536;52.198;9.920;2022-12-07T01:41:27;100482.78;;;3.71;100.00
13968;BME280;39536;52.198;9.920;2022-12-07T01:44:22;100483.66;;;3.68;100.00
13968;BME280;39536;52.198;9.920;2022-12-07T01:46:50;100491.34;;;3.70;100.00
13968;BME280;39536;52.198;9.920;2022-12-07T01:49:27;100473.31;;;3.73;100.00
13968;BME280;39536;52.198;9.920;2022-12-07T01:52:00;100477.59;;;3.80;100.00
13968;BME280;39536;52.198;9.920;2022-12-07T01:54:28;100478.44;;;3.79;100.00
13968;BME280;39536;52.198;9.920;2022-12-07T01:56:56;100480.25;;;3.65;100.00
13968;BME280;39536;52.198;9.920;2022-12-07T01:59:25;100480.25;;;3.62;100.00
13968;BME280;39536;52.198;9.920;2022-12-07T02:01:52;100487.97;;;3.65;100.00
13968;BME280;39536;52.198;9.920;2022-12-07T02:04:21;100488.00;;;3.62;100.00
13968;BME280;39536;52.198;9.920;2022-12-07T02:06:49;100490.53;;;3.66;100.00
13968;BME280;39536;52.198;9.920;2022-12-07T02:09:16;100477.66;;;3.66;100.00
13968;BME280;39536;52.198;9.920;2022-12-07T02:11:43;100484.53;;;3.63;100.00
13968;BME280;39536;52.198;9.920;2022-12-07T02:14:11;100482.84;;;3.59;100.00
13968;BME280;39536;52.198;9.920;2022-12-07T02:16:47;100478.53;;;3.58;100.00
13968;BME280;39536;52.198;9.920;2022-12-07T02:26:17;100467.38;;;3.65;100.00
13968;BME280;39536;52.198;9.920;2022-12-07T02:29:00;100472.56;;;3.59;100.00
13968;BME280;39536;52.198;9.920;2022-12-07T02:31:33;100467.38;;;3.62;100.00
13968;BME280;39536;52.198;9.920;2022-12-07T02:34:05;100467.41;;;3.59;100.00
13968;BME280;39536;52.198;9.920;2022-12-07T02:36:37;100455.34;;;3.61;100.00
13968;BME280;39536;52.198;9.920;2022-12-07T02:39:11;100457.91;;;3.61;100.00
13968;BME280;39536;52.198;9.920;2022-12-07T02:41:44;100447.63;;;3.58;100.00
13968;BME280;39536;52.198;9.920;2022-12-07T02:44:16;100456.25;;;3.57;100.00
13968;BME280;39536;52.198;9.920;2022-12-07T02:46:49;100458.00;;;3.50;100.00
13968;BME280;39536;52.198;9.920;2022-12-07T02:49:21;100447.66;;;3.52;100.00
13968;BME280;39536;52.198;9.920;2022-12-07T02:51:49;100448.59;;;3.46;100.00
13968;BME280;39536;52.198;9.920;2022-12-07T02:54:17;100444.25;;;3.48;100.00
13968;BME280;39536;52.198;9.920;2022-12-07T02:56:48;100445.09;;;3.52;100.00
13968;BME280;39536;52.198;9.920;2022-12-07T02:59:25;100446.84;;;3.50;100.00
13968;BME280;39536;52.198;9.920;2022-12-07T03:02:05;100434.81;;;3.50;100.00
13968;BME280;39536;52.198;9.920;2022-12-07T03:04:42;100435.72;;;3.43;100.00
13968;BME280;39536;52.198;9.920;2022-12-07T03:07:18;100440.84;;;3.46;100.00
13968;BME280;39536;52.198;9.920;2022-12-07T03:09:52;100432.28;;;3.39;100.00
13968;BME280;39536;52.198;9.920;2022-12-07T03:12:25;100435.72;;;3.43;100.00
13968;BME280;39536;52.198;9.920;2022-12-07T03:15:01;100442.56;;;3.45;100.00
13968;BME280;39536;52.198;9.920;2022-12-07T03:17:32;100435.72;;;3.41;100.00
13968;BME280;39536;52.198;9.920;2022-12-07T03:20:05;100439.13;;;3.45;100.00
13968;BME280;39536;52.198;9.920;2022-12-07T03:22:35;100440.84;;;3.44;100.00
13968;BME280;39536;52.198;9.920;2022-12-07T03:25:06;100443.47;;;3.40;100.00
13968;BME280;39536;52.198;9.920;2022-12-07T03:27:39;100435.72;;;3.41;100.00
13968;BME280;39536;52.198;9.920;2022-12-07T03:30:13;100431.41;;;3.46;100.00
13968;BME280;39536;52.198;9.920;2022-12-07T03:32:44;100437.41;;;3.47;100.00
13968;BME280;39536;52.198;9.920;2022-12-07T03:35:15;100429.66;;;3.48;100.00
13968;BME280;39536;52.198;9.920;2022-12-07T03:37:48;100420.22;;;3.47;100.00
13968;BME280;39536;52.198;9.920;2022-12-07T03:40:21;100423.66;;;3.51;100.00
13968;BME280;39536;52.198;9.920;2022-12-07T03:42:50;100421.97;;;3.44;100.00
13968;BME280;39536;52.198;9.920;2022-12-07T03:45:23;100421.97;;;3.42;100.00
13968;BME280;39536;52.198;9.920;2022-12-07T03:47:59;100419.41;;;3.41;100.00
13968;BME280;39536;52.198;9.920;2022-12-07T03:50:31;100415.94;;;3.45;100.00
13968;BME280;39536;52.198;9.920;2022-12-07T03:53:05;100421.94;;;3.48;100.00
13968;BME280;39536;52.198;9.920;2022-12-07T03:55:39;100418.53;;;3.45;100.00
13968;BME280;39536;52.198;9.920;2022-12-07T03:58:09;100422.84;;;3.46;100.00
13968;BME280;39536;52.198;9.920;2022-12-07T04:00:40;100424.56;;;3.44;100.00
13968;BME280;39536;52.198;9.920;2022-12-07T04:03:07;100425.41;;;3.46;100.00
13968;BME280;39536;52.198;9.920;2022-12-07T04:05:33;100436.56;;;3.45;100.00
13968;BME280;39536;52.198;9.920;2022-12-07T04:08:00;100423.72;;;3.40;100.00
13968;BME280;39536;52.198;9.920;2022-12-07T04:10:27;100422.84;;;3.46;100.00
13968;BME280;39536;52.198;9.920;2022-12-07T04:12:54;100422.81;;;3.44;100.00
13968;BME280;39536;52.198;9.920;2022-12-07T04:15:21;100421.97;;;3.44;100.00
13968;BME280;39536;52.198;9.920;2022-12-07T04:17:49;100421.97;;;3.42;100.00
13968;BME280;39536;52.198;9.920;2022-12-07T04:20:16;100428.00;;;3.38;100.00
13968;BME280;39536;52.198;9.920;2022-12-07T04:22:43;100427.13;;;3.44;100.00
13968;BME280;39536;52.198;9.920;2022-12-07T04:25:09;100432.31;;;3.38;100.00
13968;BME280;39536;52.198;9.920;2022-12-07T04:27:36;100428.03;;;3.37;100.00
13968;BME280;39536;52.198;9.920;2022-12-07T04:30:04;100435.75;;;3.40;100.00
13968;BME280;39536;52.198;9.920;2022-12-07T04:32:31;100429.66;;;3.48;100.00
13968;BME280;39536;52.198;9.920;2022-12-07T04:34:59;100425.41;;;3.46;100.00
13968;BME280;39536;52.198;9.920;2022-12-07T04:37:25;100422.84;;;3.43;100.00
13968;BME280;39536;52.198;9.920;2022-12-07T04:39:52;100419.41;;;3.42;100.00
13968;BME280;39536;52.198;9.920;2022-12-07T04:42:19;100436.56;;;3.45;100.00
13968;BME280;39536;52.198;9.920;2022-12-07T04:44:45;100440.00;;;3.42;100.00
13968;BME280;39536;52.198;9.920;2022-12-07T04:47:12;100427.09;;;3.48;100.00
13968;BME280;39536;52.198;9.920;2022-12-07T04:49:38;100427.97;;;3.44;100.00
13968;BME280;39536;52.198;9.920;2022-12-07T04:52:07;100417.69;;;3.41;100.00
13968;BME280;39536;52.198;9.920;2022-12-07T04:54:33;100417.69;;;3.41;100.00
13968;BME280;39536;52.198;9.920;2022-12-07T04:57:00;100422.88;;;3.40;100.00
13968;BME280;39536;52.198;9.920;2022-12-07T04:59:27;100409.97;;;3.43;100.00
13968;BME280;39536;52.198;9.920;2022-12-07T05:01:53;100405.66;;;3.42;100.00
13968;BME280;39536;52.198;9.920;2022-12-07T05:04:20;100407.41;;;3.41;100.00
13968;BME280;39536;52.198;9.920;2022-12-07T05:06:47;100411.66;;;3.42;100.00
13968;BME280;39536;52.198;9.920;2022-12-07T05:09:15;100417.69;;;3.43;100.00
13968;BME280;39536;52.198;9.920;2022-12-07T05:11:41;100411.69;;;3.44;100.00
13968;BME280;39536;52.198;9.920;2022-12-07T05:14:11;100415.13;;;3.46;100.00
13968;BME280;39536;52.198;9.920;2022-12-07T05:16:38;100421.09;;;3.50;100.00
13968;BME280;39536;52.198;9.920;2022-12-07T05:19:06;100419.38;;;3.45;100.00
13968;BME280;39536;52.198;9.920;2022-12-07T05:21:34;100413.41;;;3.43;100.00
13968;BME280;39536;52.198;9.920;2022-12-07T05:24:01;100421.09;;;3.45;100.00
13968;BME280;39536;52.198;9.920;2022-12-07T05:26:30;100410.84;;;3.40;100.00
13968;BME280;39536;52.198;9.920;2022-12-07T05:28:57;100404.00;;;3.35;100.00
13968;BME280;39536;52.198;9.920;2022-12-07T05:31:25;100404.81;;;3.41;100.00
13968;BME280;39536;52.198;9.920;2022-12-07T05:33:52;100404.81;;;3.44;100.00
13968;BME280;39536;52.198;9.920;2022-12-07T05:36:18;100394.53;;;3.43;100.00
13968;BME280;39536;52.198;9.920;2022-12-07T05:38:46;100396.25;;;3.39;100.00
13968;BME280;39536;52.198;9.920;2022-12-07T05:41:15;100389.38;;;3.46;100.00
13968;BME280;39536;52.198;9.920;2022-12-07T05:44:01;100386.78;;;3.44;100.00
13968;BME280;39536;52.198;9.920;2022-12-07T05:46:28;100404.81;;;3.41;100.00
13968;BME280;39536;52.198;9.920;2022-12-07T05:48:55;100391.91;;;3.47;100.00
13968;BME280;39536;52.198;9.920;2022-12-07T05:51:21;100404.84;;;3.43;100.00
13968;BME280;39536;52.198;9.920;2022-12-07T05:53:48;100397.09;;;3.46;100.00
13968;BME280;39536;52.198;9.920;2022-12-07T05:56:15;100392.78;;;3.42;100.00
13968;BME280;39536;52.198;9.920;2022-12-07T05:58:42;100400.56;;;3.37;100.00
13968;BME280;39536;52.198;9.920;2022-12-07T06:01:27;100400.53;;;3.42;100.00
13968;BME280;39536;52.198;9.920;2022-12-07T06:03:54;100418.59;;;3.34;100.00
13968;BME280;39536;52.198;9.920;2022-12-07T06:06:21;100401.41;;;3.38;100.00
13968;BME280;39536;52.198;9.920;2022-12-07T06:08:48;100397.97;;;3.40;100.00
13968;BME280;39536;52.198;9.920;2022-12-07T06:11:14;100393.69;;;3.38;100.00
13968;BME280;39536;52.198;9.920;2022-12-07T06:13:58;100408.25;;;3.39;100.00
13968;BME280;39536;52.198;9.920;2022-12-07T06:16:26;100401.41;;;3.41;100.00
13968;BME280;39536;52.198;9.920;2022-12-07T06:18:53;100409.97;;;3.44;100.00
13968;BME280;39536;52.198;9.920;2022-12-07T06:21:20;100410.81;;;3.46;100.00
13968;BME280;39536;52.198;9.920;2022-12-07T06:23:46;100412.53;;;3.49;100.00
13968;BME280;39536;52.198;9.920;2022-12-07T06:26:13;100410.78;;;3.50;100.00
13968;BME280;39536;52.198;9.920;2022-12-07T06:28:40;100407.38;;;3.47;100.00
13968;BME280;39536;52.198;9.920;2022-12-07T06:31:07;100419.34;;;3.53;100.00
13968;BME280;39536;52.198;9.920;2022-12-07T06:33:35;100415.03;;;3.58;100.00
13968;BME280;39536;52.198;9.920;2022-12-07T06:36:02;100415.03;;;3.60;100.00
13968;BME280;39536;52.198;9.920;2022-12-07T06:38:29;100419.31;;;3.58;100.00
13968;BME280;39536;52.198;9.920;2022-12-07T06:40:55;100422.78;;;3.55;100.00
13968;BME280;39536;52.198;9.920;2022-12-07T06:43:22;100412.41;;;3.61;100.00
13968;BME280;39536;52.198;9.920;2022-12-07T06:45:49;100419.28;;;3.65;100.00
13968;BME280;39536;52.198;9.920;2022-12-07T06:48:16;100414.09;;;3.67;100.00
13968;BME280;39536;52.198;9.920;2022-12-07T06:50:45;100420.13;;;3.66;100.00
13968;BME280;39536;52.198;9.920;2022-12-07T06:53:12;100418.44;;;3.65;100.00
13968;BME280;39536;52.198;9.920;2022-12-07T06:55:39;100421.00;;;3.68;100.00
13968;BME280;39536;52.198;9.920;2022-12-07T06:58:06;100411.53;;;3.68;100.00
13968;BME280;39536;52.198;9.920;2022-12-07T07:00:33;100412.41;;;3.64;100.00
13968;BME280;39536;52.198;9.920;2022-12-07T07:03:00;100413.22;;;3.73;100.00
13968;BME280;39536;52.198;9.920;2022-12-07T07:05:27;100413.22;;;3.74;100.00
13968;BME280;39536;52.198;9.920;2022-12-07T07:07:55;100418.38;;;3.73;100.00
13968;BME280;39536;52.198;9.920;2022-12-07T07:10:21;100412.41;;;3.66;100.00
13968;BME280;39536;52.198;9.920;2022-12-07T07:12:48;100416.66;;;3.70;100.00
13968;BME280;39536;52.198;9.920;2022-12-07T07:15:15;100419.22;;;3.75;100.00
13968;BME280;39536;52.198;9.920;2022-12-07T07:17:42;100422.59;;;3.81;100.00
13968;BME280;39536;52.198;9.920;2022-12-07T07:20:10;100420.91;;;3.80;100.00
13968;BME280;39536;52.198;9.920;2022-12-07T07:22:37;100420.97;;;3.69;100.00
13968;BME280;39536;52.198;9.920;2022-12-07T07:25:06;100426.94;;;3.78;100.00
13968;BME280;39536;52.198;9.920;2022-12-07T07:27:32;100429.50;;;3.76;100.00
13968;BME280;39536;52.198;9.920;2022-12-07T07:29:59;100431.22;;;3.76;100.00
13968;BME280;39536;52.198;9.920;2022-12-07T07:32:26;100424.41;;;3.67;100.00
13968;BME280;39536;52.198;9.920;2022-12-07T07:34:53;100422.69;;;3.67;100.00
13968;BME280;39536;52.198;9.920;2022-12-07T07:37:20;100421.81;;;3.70;100.00
13968;BME280;39536;52.198;9.920;2022-12-07T07:39:46;100431.34;;;3.59;100.00
13968;BME280;39536;52.198;9.920;2022-12-07T07:42:15;100441.59;;;3.63;100.00
13968;BME280;39536;52.198;9.920;2022-12-07T07:44:41;100436.44;;;3.63;100.00
13968;BME280;39536;52.198;9.920;2022-12-07T07:47:08;100426.13;;;3.66;100.00
13968;BME280;39536;52.198;9.920;2022-12-07T07:49:35;100440.75;;;3.63;100.00
13968;BME280;39536;52.198;9.920;2022-12-07T07:52:02;100433.91;;;3.62;100.00
13968;BME280;39536;52.198;9.920;2022-12-07T07:54:29;100437.31;;;3.61;100.00
13968;BME280;39536;52.198;9.920;2022-12-07T07:56:56;100441.63;;;3.62;100.00
13968;BME280;39536;52.198;9.920;2022-12-07T07:59:24;100443.38;;;3.58;100.00
13968;BME280;39536;52.198;9.920;2022-12-07T08:01:51;100450.25;;;3.53;100.00
13968;BME280;39536;52.198;9.920;2022-12-07T08:04:18;100441.66;;;3.56;100.00
13968;BME280;39536;52.198;9.920;2022-12-07T08:06:44;100451.16;;;3.49;100.00
13968;BME280;39536;52.198;9.920;2022-12-07T08:09:12;100438.25;;;3.55;100.00
13968;BME280;39536;52.198;9.920;2022-12-07T08:11:38;100457.09;;;3.54;100.00
13968;BME280;39536;52.198;9.920;2022-12-07T08:14:05;100450.22;;;3.55;100.00
13968;BME280;39536;52.198;9.920;2022-12-07T08:16:33;100456.25;;;3.58;100.00
13968;BME280;39536;52.198;9.920;2022-12-07T08:19:00;100453.69;;;3.54;100.00
13968;BME280;39536;52.198;9.920;2022-12-07T08:21:27;100457.09;;;3.59;100.00
13968;BME280;39536;52.198;9.920;2022-12-07T08:23:53;100444.19;;;3.63;100.00
13968;BME280;39536;52.198;9.920;2022-12-07T08:26:20;100447.59;;;3.67;100.00
13968;BME280;39536;52.198;9.920;2022-12-07T08:28:47;100449.34;;;3.60;100.00
13968;BME280;39536;52.198;9.920;2022-12-07T08:31:16;100445.00;;;3.67;100.00
13968;BME280;39536;52.198;9.920;2022-12-07T08:33:46;100441.66;;;3.59;100.00
13968;BME280;39536;52.198;9.920;2022-12-07T08:36:13;100441.63;;;3.62;100.00
13968;BME280;39536;52.198;9.920;2022-12-07T08:38:41;100435.66;;;3.58;100.00
13968;BME280;39536;52.198;9.920;2022-12-07T08:41:08;100438.19;;;3.63;100.00
13968;BME280;39536;52.198;9.920;2022-12-07T08:43:36;100432.16;;;3.64;100.00
13968;BME280;39536;52.198;9.920;2022-12-07T08:46:06;100439.81;;;3.73;100.00
13968;BME280;39536;52.198;9.920;2022-12-07T08:48:37;100450.19;;;3.61;100.00
13968;BME280;39536;52.198;9.920;2022-12-07T08:51:07;100447.56;;;3.70;100.00
13968;BME280;39536;52.198;9.920;2022-12-07T08:53:34;100441.53;;;3.80;100.00
13968;BME280;39536;52.198;9.920;2022-12-07T08:56:02;100445.78;;;3.81;100.00
13968;BME280;39536;52.198;9.920;2022-12-07T08:58:29;100451.75;;;3.88;100.00
13968;BME280;39536;52.198;9.920;2022-12-07T09:00:55;100446.59;;;3.92;100.00
13968;BME280;39536;52.198;9.920;2022-12-07T09:03:22;100449.16;;;3.92;100.00
13968;BME280;39536;52.198;9.920;2022-12-07T09:05:49;100447.34;;;4.05;100.00
13968;BME280;39536;52.198;9.920;2022-12-07T09:08:17;100453.38;;;4.03;100.00
13968;BME280;39536;52.198;9.920;2022-12-07T09:10:44;100455.09;;;4.02;100.00
13968;BME280;39536;52.198;9.920;2022-12-07T09:13:10;100456.81;;;4.02;100.00
13968;BME280;39536;52.198;9.920;2022-12-07T09:15:37;100460.19;;;4.11;100.00
13968;BME280;39536;52.198;9.920;2022-12-07T09:18:04;100458.47;;;4.12;100.00
13968;BME280;39536;52.198;9.920;2022-12-07T09:20:30;100458.44;;;4.15;100.00
13968;BME280;39536;52.198;9.920;2022-12-07T09:22:57;100454.97;;;4.19;100.00
13968;BME280;39536;52.198;9.920;2022-12-07T09:25:25;100448.09;;;4.21;100.00
13968;BME280;39536;52.198;9.920;2022-12-07T09:27:55;100455.06;;;4.08;100.00
13968;BME280;39536;52.198;9.920;2022-12-07T09:30:23;100464.47;;;4.12;100.00
13968;BME280;39536;52.198;9.920;2022-12-07T09:32:49;100467.06;;;4.08;100.00
13968;BME280;39536;52.198;9.920;2022-12-07T09:35:16;100454.19;;;4.08;100.00
13968;BME280;39536;52.198;9.920;2022-12-07T09:37:43;100448.16;;;4.12;100.00
13968;BME280;39536;52.198;9.920;2022-12-07T09:40:11;100453.34;;;4.09;100.00
13968;BME280;39536;52.198;9.920;2022-12-07T09:42:42;100449.88;;;4.10;100.00
13968;BME280;39536;52.198;9.920;2022-12-07T09:45:14;100446.41;;;4.15;100.00
13968;BME280;39536;52.198;9.920;2022-12-07T09:47:41;100437.91;;;4.04;100.00
13968;BME280;39536;52.198;9.920;2022-12-07T09:50:13;100440.47;;;4.06;100.00
13968;BME280;39536;52.198;9.920;2022-12-07T09:52:42;100428.44;;;4.06;100.00
13968;BME280;39536;52.198;9.920;2022-12-07T09:55:12;100439.59;;;4.08;100.00
13968;BME280;39536;52.198;9.920;2022-12-07T09:57:41;100442.13;;;4.14;100.00
13968;BME280;39536;52.198;9.920;2022-12-07T10:00:13;100440.38;;;4.16;100.00
13968;BME280;39536;52.198;9.920;2022-12-07T10:02:42;100440.38;;;4.16;100.00
13968;BME280;39536;52.198;9.920;2022-12-07T10:05:13;100428.97;;;4.42;100.00
13968;BME280;39536;52.198;9.920;2022-12-07T10:07:41;100432.34;;;4.52;100.00
13968;BME280;39536;52.198;9.920;2022-12-07T10:10:14;100436.78;;;4.36;100.00
13968;BME280;39536;52.198;9.920;2022-12-07T10:13:03;100442.84;;;4.33;100.00
13968;BME280;39536;52.198;9.920;2022-12-07T10:15:45;100442.00;;;4.28;100.00
13968;BME280;39536;52.198;9.920;2022-12-07T10:18:36;100437.50;;;4.50;100.00
13968;BME280;39536;52.198;9.920;2022-12-07T10:21:09;100442.63;;;4.58;100.00
13968;BME280;39536;52.198;9.920;2022-12-07T10:23:37;100422.13;;;4.41;100.00
13968;BME280;39536;52.198;9.920;2022-12-07T10:26:26;100417.78;;;4.46;100.00
13968;BME280;39536;52.198;9.920;2022-12-07T10:28:55;100428.88;;;4.54;100.00
13968;BME280;39536;52.198;9.920;2022-12-07T10:31:24;100442.66;;;4.52;100.00
13968;BME280;39536;52.198;9.920;2022-12-07T10:33:53;100441.09;;;4.34;100.00
13968;BME280;39536;52.198;9.920;2022-12-07T10:36:23;100428.25;;;4.26;100.00
13968;BME280;39536;52.198;9.920;2022-12-07T10:38:52;100438.66;;;4.19;100.00
13968;BME280;39536;52.198;9.920;2022-12-07T10:41:19;100435.31;;;4.04;100.00
13968;BME280;39536;52.198;9.920;2022-12-07T10:43:48;100446.47;;;4.09;100.00
13968;BME280;39536;52.198;9.920;2022-12-07T10:49:44;100423.25;;;4.09;100.00
13968;BME280;39536;52.198;9.920;2022-12-07T10:52:21;100436.13;;;4.11;100.00
13968;BME280;39536;52.198;9.920;2022-12-07T10:55:03;100434.41;;;4.13;100.00
13968;BME280;39536;52.198;9.920;2022-12-07T10:57:42;100423.22;;;4.14;100.00
13968;BME280;39536;52.198;9.920;2022-12-07T11:00:17;100437.84;;;4.10;100.00
13968;BME280;39536;52.198;9.920;2022-12-07T11:03:05;100428.38;;;4.12;100.00
13968;BME280;39536;52.198;9.920;2022-12-07T11:05:48;100419.72;;;4.21;100.00
13968;BME280;39536;52.198;9.920;2022-12-07T11:08:22;100408.50;;;4.25;100.00
13968;BME280;39536;52.198;9.920;2022-12-07T11:10:58;100421.31;;;4.34;100.00
13968;BME280;39536;52.198;9.920;2022-12-07T11:13:29;100414.34;;;4.44;100.00
13968;BME280;39536;52.198;9.920;2022-12-07T11:16:16;100420.31;;;4.51;100.00
13968;BME280;39536;52.198;9.920;2022-12-07T11:18:54;100414.25;;;4.56;100.00
13968;BME280;39536;52.198;9.920;2022-12-07T11:21:30;100413.28;;;4.65;100.00
13968;BME280;39536;52.198;9.920;2022-12-07T11:24:08;100414.94;;;4.72;100.00
13968;BME280;39536;52.198;9.920;2022-12-07T11:26:59;100412.31;;;4.77;100.00
13968;BME280;39536;52.198;9.920;2022-12-07T11:29:47;100406.41;;;4.66;100.00
13968;BME280;39536;52.198;9.920;2022-12-07T11:32:25;100397.84;;;4.62;100.00
13968;BME280;39536;52.198;9.920;2022-12-07T11:35:05;100399.66;;;4.55;100.00
13968;BME280;39536;52.198;9.920;2022-12-07T11:37:37;100392.66;;;4.65;100.00
13968;BME280;39536;52.198;9.920;2022-12-07T11:40:15;100383.13;;;4.70;100.00
13968;BME280;39536;52.198;9.920;2022-12-07T11:42:46;100384.91;;;4.65;100.00
13968;BME280;39536;52.198;9.920;2022-12-07T11:45:20;100387.50;;;4.65;100.00
13968;BME280;39536;52.198;9.920;2022-12-07T11:47:53;100383.19;;;4.64;100.00
13968;BME280;39536;52.198;9.920;2022-12-07T11:50:27;100386.72;;;4.58;100.00
13968;BME280;39536;52.198;9.920;2022-12-07T11:53:01;100374.66;;;4.57;100.00
13968;BME280;39536;52.198;9.920;2022-12-07T11:55:37;100371.31;;;4.51;100.00
13968;BME280;39536;52.198;9.920;2022-12-07T11:58:19;100363.47;;;4.60;100.00
13968;BME280;39536;52.198;9.920;2022-12-07T12:00:48;100360.91;;;4.57;100.00
13968;BME280;39536;52.198;9.920;2022-12-07T12:03:22;100363.56;;;4.51;100.00
13968;BME280;39536;52.198;9.920;2022-12-07T12:05:55;100365.25;;;4.55;100.00
13968;BME280;39536;52.198;9.920;2022-12-07T12:08:27;100371.34;;;4.48;100.00
13968;BME280;39536;52.198;9.920;2022-12-07T12:11:00;100365.31;;;4.49;100.00
13968;BME280;39536;52.198;9.920;2022-12-07T12:13:53;100366.97;;;4.56;100.00
13968;BME280;39536;52.198;9.920;2022-12-07T12:16:46;100367.88;;;4.50;100.00
13968;BME280;39536;52.198;9.920;2022-12-07T12:19:27;100361.94;;;4.44;100.00
13968;BME280;39536;52.198;9.920;2022-12-07T12:22:11;100367.91;;;4.47;100.00
13968;BME280;39536;52.198;9.920;2022-12-07T12:24:41;100357.63;;;4.46;100.00
13968;BME280;39536;52.198;9.920;2022-12-07T12:27:18;100373.06;;;4.47;100.00
13968;BME280;39536;52.198;9.920;2022-12-07T12:29:52;100340.41;;;4.45;100.00
13968;BME280;39536;52.198;9.920;2022-12-07T12:32:21;100362.94;;;4.30;100.00
13968;BME280;39536;52.198;9.920;2022-12-07T12:35:01;100353.47;;;4.29;100.00
13968;BME280;39536;52.198;9.920;2022-12-07T12:37:42;100350.00;;;4.33;100.00
13968;BME280;39536;52.198;9.920;2022-12-07T12:40:40;100344.78;;;4.39;100.00
13968;BME280;39536;52.198;9.920;2022-12-07T12:46:38;100336.88;;;4.53;100.00
13968;BME280;39536;52.198;9.920;2022-12-07T12:49:38;100338.53;;;4.60;100.00
13968;BME280;39536;52.198;9.920;2022-12-07T12:55:16;100334.72;;;4.91;100.00
13968;BME280;39536;52.198;9.920;2022-12-07T12:58:30;100326.75;;;5.09;100.00
13968;BME280;39536;52.198;9.920;2022-12-07T13:07:51;100314.38;;;5.29;100.00
13968;BME280;39536;52.198;9.920;2022-12-07T13:10:41;100310.06;;;5.31;100.00
13968;BME280;39536;52.198;9.920;2022-12-07T13:13:32;100306.56;;;5.36;100.00
13968;BME280;39536;52.198;9.920;2022-12-07T13:16:37;100319.47;;;5.37;100.00
13968;BME280;39536;52.198;9.920;2022-12-07T13:22:51;100312.16;;;5.06;100.00
13968;BME280;39536;52.198;9.920;2022-12-07T13:25:27;100314.00;;;4.97;100.00
13968;BME280;39536;52.198;9.920;2022-12-07T13:27:57;100324.44;;;4.89;100.00
13968;BME280;39536;52.198;9.920;2022-12-07T13:30:29;100320.06;;;4.96;100.00
13968;BME280;39536;52.198;9.920;2022-12-07T13:32:58;100313.13;;;4.98;100.00
13968;BME280;39536;52.198;9.920;2022-12-07T13:35:33;100310.69;;;4.85;100.00